PWSweather.com
Personal Weather Stations
Station Observations
IBAVARIA50
Munich, PlieningDE 85652

MunichPlieningDE 85652

Lat: 48.19916153, Lon: 11.79794312

Elevation: 504

Station Type: Davis Vantage Pro2

http://wetterstation-pliening.info

High Low Average
Temperature 56.0°F13.3°C 49.7°F9.8°C 52.5°F11.4°C
Dew Point 50.5°F10.3°C 37.6°F3.1°C 46.1°F7.8°C
Winds 32.0 mph 51.5 kmh 4.0 mph 6.4 kmh 14.0 mph WSW22.5 kmh WSW
Wind Gusts 36.0 mph57.9 kmh 9.0 mph14.5 kmh 23.0 mph37.0 kmh
Humidity 94% 50% 80%
Pressure 30.20 in1022.7 mb 30.02 in1016.6 mb -
Precipitation 0.13 in3.3 mm - -
Hour Temp Dew Point Humidity Winds Wind Gusts Pressure Precip Precip Rate Daily Precip Total
12:00 AM 56.0°F13.3°C 37.6°F3.1°C 50% 16.0 mph WSW25.7 kmh WSW 31.0 mph49.9 kmh 30.10 in1019.3 mb 0.00 in0.0 mm 0.00 in0.0 mm 0.00 in0.0 mm
12:05 AM 55.9°F13.3°C 38.0°F3.3°C 51% 14.0 mph WSW22.5 kmh WSW 29.0 mph46.7 kmh 30.10 in1019.3 mb 0.00 in0.0 mm 0.00 in0.0 mm 0.00 in0.0 mm
12:10 AM 55.8°F13.2°C 37.9°F3.3°C 51% 16.0 mph W25.7 kmh W 25.0 mph40.2 kmh 30.10 in1019.3 mb 0.00 in0.0 mm 0.00 in0.0 mm 0.00 in0.0 mm
12:15 AM 55.8°F13.2°C 37.9°F3.3°C 51% 15.0 mph SW24.1 kmh SW 28.0 mph45.1 kmh 30.09 in1019.0 mb 0.00 in0.0 mm 0.00 in0.0 mm 0.00 in0.0 mm
12:20 AM 55.8°F13.2°C 37.9°F3.3°C 51% 13.0 mph W20.9 kmh W 26.0 mph41.8 kmh 30.10 in1019.3 mb 0.00 in0.0 mm 0.00 in0.0 mm 0.00 in0.0 mm
12:25 AM 55.8°F13.2°C 37.9°F3.3°C 51% 17.0 mph WSW27.4 kmh WSW 28.0 mph45.1 kmh 30.10 in1019.3 mb 0.00 in0.0 mm 0.00 in0.0 mm 0.00 in0.0 mm
12:30 AM 55.8°F13.2°C 37.9°F3.3°C 51% 11.0 mph WSW17.7 kmh WSW 24.0 mph38.6 kmh 30.10 in1019.3 mb 0.00 in0.0 mm 0.00 in0.0 mm 0.00 in0.0 mm
12:35 AM 55.8°F13.2°C 37.9°F3.3°C 51% 15.0 mph WSW24.1 kmh WSW 27.0 mph43.5 kmh 30.10 in1019.3 mb 0.00 in0.0 mm 0.00 in0.0 mm 0.00 in0.0 mm
12:40 AM 55.8°F13.2°C 37.9°F3.3°C 51% 17.0 mph WSW27.4 kmh WSW 32.0 mph51.5 kmh 30.11 in1019.6 mb 0.00 in0.0 mm 0.00 in0.0 mm 0.00 in0.0 mm
12:45 AM 55.7°F13.2°C 37.8°F3.2°C 51% 14.0 mph WSW22.5 kmh WSW 30.0 mph48.3 kmh 30.10 in1019.3 mb 0.00 in0.0 mm 0.00 in0.0 mm 0.00 in0.0 mm
12:50 AM 55.6°F13.1°C 38.2°F3.4°C 52% 20.0 mph WSW32.2 kmh WSW 26.0 mph41.8 kmh 30.10 in1019.3 mb 0.00 in0.0 mm 0.00 in0.0 mm 0.00 in0.0 mm
12:55 AM 55.5°F13.1°C 38.1°F3.4°C 52% 15.0 mph SW24.1 kmh SW 25.0 mph40.2 kmh 30.08 in1018.6 mb 0.00 in0.0 mm 0.00 in0.0 mm 0.00 in0.0 mm
01:00 AM 55.4°F13.0°C 38.0°F3.3°C 52% 25.0 mph W40.2 kmh W 27.0 mph43.5 kmh 30.09 in1019.0 mb 0.00 in0.0 mm 0.00 in0.0 mm 0.00 in0.0 mm
01:05 AM 55.3°F12.9°C 37.9°F3.3°C 52% 16.0 mph WSW25.7 kmh WSW 27.0 mph43.5 kmh 30.09 in1019.0 mb 0.00 in0.0 mm 0.00 in0.0 mm 0.00 in0.0 mm
01:10 AM 55.2°F12.9°C 38.3°F3.5°C 53% 10.0 mph WSW16.1 kmh WSW 23.0 mph37.0 kmh 30.09 in1019.0 mb 0.00 in0.0 mm 0.00 in0.0 mm 0.00 in0.0 mm
01:15 AM 55.2°F12.9°C 38.3°F3.5°C 53% 12.0 mph WSW19.3 kmh WSW 25.0 mph40.2 kmh 30.09 in1019.0 mb 0.00 in0.0 mm 0.00 in0.0 mm 0.00 in0.0 mm
01:20 AM 55.2°F12.9°C 38.3°F3.5°C 53% 14.0 mph WSW22.5 kmh WSW 26.0 mph41.8 kmh 30.09 in1019.0 mb 0.00 in0.0 mm 0.00 in0.0 mm 0.00 in0.0 mm
01:25 AM 55.2°F12.9°C 38.3°F3.5°C 53% 13.0 mph WSW20.9 kmh WSW 24.0 mph38.6 kmh 30.08 in1018.6 mb 0.00 in0.0 mm 0.00 in0.0 mm 0.00 in0.0 mm
01:30 AM 55.2°F12.9°C 38.3°F3.5°C 53% 25.0 mph WSW40.2 kmh WSW 31.0 mph49.9 kmh 30.09 in1019.0 mb 0.00 in0.0 mm 0.00 in0.0 mm 0.00 in0.0 mm
01:35 AM 55.3°F12.9°C 38.4°F3.6°C 53% 22.0 mph SW35.4 kmh SW 26.0 mph41.8 kmh 30.09 in1019.0 mb 0.00 in0.0 mm 0.00 in0.0 mm 0.00 in0.0 mm
01:40 AM 55.2°F12.9°C 38.3°F3.5°C 53% 12.0 mph W19.3 kmh W 22.0 mph35.4 kmh 30.09 in1019.0 mb 0.00 in0.0 mm 0.00 in0.0 mm 0.00 in0.0 mm
01:45 AM 55.1°F12.8°C 38.2°F3.4°C 53% 13.0 mph SW20.9 kmh SW 25.0 mph40.2 kmh 30.09 in1019.0 mb 0.00 in0.0 mm 0.00 in0.0 mm 0.00 in0.0 mm
01:50 AM 55.1°F12.8°C 38.7°F3.7°C 54% 11.0 mph SW17.7 kmh SW 23.0 mph37.0 kmh 30.10 in1019.3 mb 0.00 in0.0 mm 0.00 in0.0 mm 0.00 in0.0 mm
01:55 AM 55.0°F12.8°C 38.6°F3.7°C 54% 15.0 mph WSW24.1 kmh WSW 25.0 mph40.2 kmh 30.10 in1019.3 mb 0.00 in0.0 mm 0.00 in0.0 mm 0.00 in0.0 mm
02:00 AM 54.9°F12.7°C 39.0°F3.9°C 55% 13.0 mph WSW20.9 kmh WSW 24.0 mph38.6 kmh 30.10 in1019.3 mb 0.00 in0.0 mm 0.00 in0.0 mm 0.00 in0.0 mm
02:05 AM 54.8°F12.7°C 38.4°F3.6°C 54% 21.0 mph WSW33.8 kmh WSW 28.0 mph45.1 kmh 30.09 in1019.0 mb 0.00 in0.0 mm 0.00 in0.0 mm 0.00 in0.0 mm
02:10 AM 54.8°F12.7°C 38.4°F3.6°C 54% 15.0 mph WSW24.1 kmh WSW 34.0 mph54.7 kmh 30.09 in1019.0 mb 0.00 in0.0 mm 0.00 in0.0 mm 0.00 in0.0 mm
02:15 AM 54.6°F12.6°C 38.7°F3.7°C 55% 17.0 mph WSW27.4 kmh WSW 24.0 mph38.6 kmh 30.09 in1019.0 mb 0.00 in0.0 mm 0.00 in0.0 mm 0.00 in0.0 mm
02:20 AM 54.5°F12.5°C 39.1°F3.9°C 56% 22.0 mph WSW35.4 kmh WSW 25.0 mph40.2 kmh 30.09 in1019.0 mb 0.00 in0.0 mm 0.00 in0.0 mm 0.00 in0.0 mm
02:25 AM 54.3°F12.4°C 39.3°F4.1°C 57% 16.0 mph WNW25.7 kmh WNW 27.0 mph43.5 kmh 30.09 in1019.0 mb 0.00 in0.0 mm 0.00 in0.0 mm 0.00 in0.0 mm
02:30 AM 54.1°F12.3°C 39.6°F4.2°C 58% 20.0 mph W32.2 kmh W 25.0 mph40.2 kmh 30.09 in1019.0 mb 0.00 in0.0 mm 0.00 in0.0 mm 0.00 in0.0 mm
02:35 AM 53.8°F12.1°C 39.8°F4.3°C 59% 14.0 mph NW22.5 kmh NW 23.0 mph37.0 kmh 30.08 in1018.6 mb 0.00 in0.0 mm 0.00 in0.0 mm 0.00 in0.0 mm
02:40 AM 53.6°F12.0°C 39.6°F4.2°C 59% 11.0 mph WSW17.7 kmh WSW 24.0 mph38.6 kmh 30.08 in1018.6 mb 0.00 in0.0 mm 0.00 in0.0 mm 0.00 in0.0 mm
02:45 AM 53.6°F12.0°C 39.6°F4.2°C 59% 27.0 mph W43.5 kmh W 32.0 mph51.5 kmh 30.07 in1018.3 mb 0.00 in0.0 mm 0.00 in0.0 mm 0.00 in0.0 mm
02:50 AM 53.6°F12.0°C 39.6°F4.2°C 59% 19.0 mph SW30.6 kmh SW 33.0 mph53.1 kmh 30.07 in1018.3 mb 0.00 in0.0 mm 0.00 in0.0 mm 0.00 in0.0 mm
02:55 AM 53.5°F11.9°C 40.3°F4.6°C 61% 21.0 mph W33.8 kmh W 32.0 mph51.5 kmh 30.08 in1018.6 mb 0.00 in0.0 mm 0.00 in0.0 mm 0.00 in0.0 mm
03:00 AM 53.4°F11.9°C 39.8°F4.3°C 60% 14.0 mph WSW22.5 kmh WSW 30.0 mph48.3 kmh 30.09 in1019.0 mb 0.00 in0.0 mm 0.00 in0.0 mm 0.00 in0.0 mm
03:05 AM 53.3°F11.8°C 40.1°F4.5°C 61% 20.0 mph SW32.2 kmh SW 28.0 mph45.1 kmh 30.08 in1018.6 mb 0.00 in0.0 mm 0.00 in0.0 mm 0.00 in0.0 mm
03:10 AM 53.3°F11.8°C 40.6°F4.8°C 62% 31.0 mph WSW49.9 kmh WSW 32.0 mph51.5 kmh 30.06 in1017.9 mb 0.00 in0.0 mm 0.00 in0.0 mm 0.00 in0.0 mm
03:15 AM 52.9°F11.6°C 40.6°F4.8°C 63% 14.0 mph SW22.5 kmh SW 27.0 mph43.5 kmh 30.06 in1017.9 mb 0.00 in0.0 mm 0.00 in0.0 mm 0.00 in0.0 mm
03:20 AM 52.8°F11.6°C 40.5°F4.7°C 63% 11.0 mph SSW17.7 kmh SSW 29.0 mph46.7 kmh 30.06 in1017.9 mb 0.00 in0.0 mm 0.00 in0.0 mm 0.00 in0.0 mm
03:25 AM 52.8°F11.6°C 41.3°F5.2°C 65% 22.0 mph WSW35.4 kmh WSW 26.0 mph41.8 kmh 30.07 in1018.3 mb 0.00 in0.0 mm 0.00 in0.0 mm 0.00 in0.0 mm
03:30 AM 52.2°F11.2°C 41.9°F5.5°C 68% 13.0 mph WSW20.9 kmh WSW 26.0 mph41.8 kmh 30.07 in1018.3 mb 0.00 in0.0 mm 0.00 in0.0 mm 0.00 in0.0 mm
03:35 AM 51.5°F10.8°C 42.4°F5.8°C 71% 19.0 mph W30.6 kmh W 27.0 mph43.5 kmh 30.08 in1018.6 mb 0.01 in0.3 mm 0.12 in3.0 mm 0.01 in0.3 mm
03:40 AM 50.9°F10.5°C 42.9°F6.1°C 74% 19.0 mph WSW30.6 kmh WSW 27.0 mph43.5 kmh 30.09 in1019.0 mb 0.02 in0.5 mm 0.12 in3.0 mm 0.02 in0.5 mm
03:45 AM 50.3°F10.2°C 43.0°F6.1°C 76% 12.0 mph SW19.3 kmh SW 24.0 mph38.6 kmh 30.08 in1018.6 mb 0.02 in0.5 mm 0.00 in0.0 mm 0.02 in0.5 mm
03:50 AM 50.1°F10.1°C 42.8°F6.0°C 76% 7.0 mph NW11.3 kmh NW 26.0 mph41.8 kmh 30.08 in1018.6 mb 0.02 in0.5 mm 0.00 in0.0 mm 0.02 in0.5 mm
03:55 AM 50.1°F10.1°C 42.8°F6.0°C 76% 16.0 mph WSW25.7 kmh WSW 25.0 mph40.2 kmh 30.09 in1019.0 mb 0.02 in0.5 mm 0.00 in0.0 mm 0.02 in0.5 mm
04:00 AM 50.0°F10.0°C 42.7°F5.9°C 76% 5.0 mph W8.0 kmh W 17.0 mph27.4 kmh 30.08 in1018.6 mb 0.02 in0.5 mm 0.00 in0.0 mm 0.02 in0.5 mm
04:05 AM 50.1°F10.1°C 42.4°F5.8°C 75% 11.0 mph WSW17.7 kmh WSW 21.0 mph33.8 kmh 30.08 in1018.6 mb 0.02 in0.5 mm 0.00 in0.0 mm 0.02 in0.5 mm
04:10 AM 50.5°F10.3°C 42.8°F6.0°C 75% 19.0 mph W30.6 kmh W 24.0 mph38.6 kmh 30.08 in1018.6 mb 0.02 in0.5 mm 0.00 in0.0 mm 0.02 in0.5 mm
04:15 AM 50.5°F10.3°C 42.5°F5.8°C 74% 15.0 mph WSW24.1 kmh WSW 21.0 mph33.8 kmh 30.08 in1018.6 mb 0.02 in0.5 mm 0.00 in0.0 mm 0.02 in0.5 mm
04:20 AM 50.5°F10.3°C 42.5°F5.8°C 74% 14.0 mph WSW22.5 kmh WSW 24.0 mph38.6 kmh 30.08 in1018.6 mb 0.02 in0.5 mm 0.00 in0.0 mm 0.02 in0.5 mm
04:25 AM 50.8°F10.4°C 42.1°F5.6°C 72% 12.0 mph WSW19.3 kmh WSW 24.0 mph38.6 kmh 30.07 in1018.3 mb 0.02 in0.5 mm 0.00 in0.0 mm 0.02 in0.5 mm
04:30 AM 51.0°F10.6°C 41.5°F5.3°C 70% 11.0 mph WSW17.7 kmh WSW 24.0 mph38.6 kmh 30.07 in1018.3 mb 0.02 in0.5 mm 0.00 in0.0 mm 0.02 in0.5 mm
04:35 AM 51.4°F10.8°C 41.9°F5.5°C 70% 12.0 mph WSW19.3 kmh WSW 29.0 mph46.7 kmh 30.07 in1018.3 mb 0.02 in0.5 mm 0.00 in0.0 mm 0.02 in0.5 mm
04:40 AM 51.5°F10.8°C 41.2°F5.1°C 68% 22.0 mph WSW35.4 kmh WSW 28.0 mph45.1 kmh 30.05 in1017.6 mb 0.01 in0.3 mm 0.00 in0.0 mm 0.02 in0.5 mm
04:45 AM 51.6°F10.9°C 41.3°F5.2°C 68% 14.0 mph W22.5 kmh W 26.0 mph41.8 kmh 30.06 in1017.9 mb 0.01 in0.3 mm 0.00 in0.0 mm 0.02 in0.5 mm
04:50 AM 51.7°F10.9°C 41.4°F5.2°C 68% 24.0 mph WSW38.6 kmh WSW 25.0 mph40.2 kmh 30.06 in1017.9 mb 0.00 in0.0 mm 0.00 in0.0 mm 0.02 in0.5 mm
04:55 AM 51.8°F11.0°C 41.1°F5.1°C 67% 15.0 mph SW24.1 kmh SW 27.0 mph43.5 kmh 30.05 in1017.6 mb 0.00 in0.0 mm 0.00 in0.0 mm 0.02 in0.5 mm
05:00 AM 51.9°F11.1°C 41.2°F5.1°C 67% 24.0 mph WSW38.6 kmh WSW 29.0 mph46.7 kmh 30.06 in1017.9 mb 0.00 in0.0 mm 0.00 in0.0 mm 0.02 in0.5 mm
05:05 AM 52.0°F11.1°C 41.3°F5.2°C 67% 16.0 mph W25.7 kmh W 25.0 mph40.2 kmh 30.06 in1017.9 mb 0.00 in0.0 mm 0.00 in0.0 mm 0.02 in0.5 mm
05:10 AM 51.9°F11.1°C 41.2°F5.1°C 67% 20.0 mph WSW32.2 kmh WSW 30.0 mph48.3 kmh 30.05 in1017.6 mb 0.00 in0.0 mm 0.00 in0.0 mm 0.02 in0.5 mm
05:15 AM 52.0°F11.1°C 41.3°F5.2°C 67% 17.0 mph WSW27.4 kmh WSW 27.0 mph43.5 kmh 30.04 in1017.3 mb 0.00 in0.0 mm 0.00 in0.0 mm 0.02 in0.5 mm
05:20 AM 52.0°F11.1°C 41.3°F5.2°C 67% 14.0 mph SW22.5 kmh SW 26.0 mph41.8 kmh 30.04 in1017.3 mb 0.00 in0.0 mm 0.00 in0.0 mm 0.02 in0.5 mm
05:25 AM 52.0°F11.1°C 41.3°F5.2°C 67% 23.0 mph SW37.0 kmh SW 26.0 mph41.8 kmh 30.04 in1017.3 mb 0.00 in0.0 mm 0.00 in0.0 mm 0.02 in0.5 mm
05:30 AM 52.2°F11.2°C 41.5°F5.3°C 67% 15.0 mph SW24.1 kmh SW 27.0 mph43.5 kmh 30.04 in1017.3 mb 0.00 in0.0 mm 0.00 in0.0 mm 0.02 in0.5 mm
05:35 AM 52.2°F11.2°C 41.5°F5.3°C 67% 14.0 mph WSW22.5 kmh WSW 25.0 mph40.2 kmh 30.05 in1017.6 mb 0.00 in0.0 mm 0.00 in0.0 mm 0.02 in0.5 mm
05:40 AM 52.3°F11.3°C 41.6°F5.3°C 67% 20.0 mph SW32.2 kmh SW 32.0 mph51.5 kmh 30.04 in1017.3 mb 0.00 in0.0 mm 0.00 in0.0 mm 0.02 in0.5 mm
05:45 AM 52.3°F11.3°C 41.6°F5.3°C 67% 16.0 mph WSW25.7 kmh WSW 26.0 mph41.8 kmh 30.04 in1017.3 mb 0.00 in0.0 mm 0.00 in0.0 mm 0.02 in0.5 mm
05:50 AM 52.4°F11.3°C 41.7°F5.4°C 67% 23.0 mph WSW37.0 kmh WSW 29.0 mph46.7 kmh 30.04 in1017.3 mb 0.00 in0.0 mm 0.00 in0.0 mm 0.02 in0.5 mm
05:55 AM 52.4°F11.3°C 41.7°F5.4°C 67% 24.0 mph WSW38.6 kmh WSW 30.0 mph48.3 kmh 30.04 in1017.3 mb 0.00 in0.0 mm 0.00 in0.0 mm 0.02 in0.5 mm
06:00 AM 52.4°F11.3°C 41.7°F5.4°C 67% 19.0 mph WSW30.6 kmh WSW 32.0 mph51.5 kmh 30.04 in1017.3 mb 0.00 in0.0 mm 0.00 in0.0 mm 0.02 in0.5 mm
06:05 AM 52.5°F11.4°C 41.8°F5.4°C 67% 16.0 mph WSW25.7 kmh WSW 28.0 mph45.1 kmh 30.04 in1017.3 mb 0.00 in0.0 mm 0.00 in0.0 mm 0.02 in0.5 mm
06:10 AM 52.5°F11.4°C 41.8°F5.4°C 67% 12.0 mph WSW19.3 kmh WSW 31.0 mph49.9 kmh 30.04 in1017.3 mb 0.00 in0.0 mm 0.00 in0.0 mm 0.02 in0.5 mm
06:15 AM 52.5°F11.4°C 41.8°F5.4°C 67% 25.0 mph WSW40.2 kmh WSW 28.0 mph45.1 kmh 30.03 in1016.9 mb 0.00 in0.0 mm 0.00 in0.0 mm 0.02 in0.5 mm
06:20 AM 52.5°F11.4°C 42.2°F5.7°C 68% 20.0 mph W32.2 kmh W 26.0 mph41.8 kmh 30.03 in1016.9 mb 0.00 in0.0 mm 0.00 in0.0 mm 0.02 in0.5 mm
06:25 AM 52.5°F11.4°C 42.2°F5.7°C 68% 21.0 mph WSW33.8 kmh WSW 27.0 mph43.5 kmh 30.03 in1016.9 mb 0.00 in0.0 mm 0.00 in0.0 mm 0.02 in0.5 mm
06:30 AM 52.5°F11.4°C 42.2°F5.7°C 68% 20.0 mph SW32.2 kmh SW 31.0 mph49.9 kmh 30.03 in1016.9 mb 0.00 in0.0 mm 0.00 in0.0 mm 0.02 in0.5 mm
06:35 AM 52.5°F11.4°C 42.2°F5.7°C 68% 14.0 mph WSW22.5 kmh WSW 23.0 mph37.0 kmh 30.02 in1016.6 mb 0.00 in0.0 mm 0.00 in0.0 mm 0.02 in0.5 mm
06:40 AM 52.5°F11.4°C 42.6°F5.9°C 69% 21.0 mph WSW33.8 kmh WSW 29.0 mph46.7 kmh 30.03 in1016.9 mb 0.00 in0.0 mm 0.00 in0.0 mm 0.02 in0.5 mm
06:45 AM 52.6°F11.4°C 42.7°F5.9°C 69% 21.0 mph W33.8 kmh W 30.0 mph48.3 kmh 30.03 in1016.9 mb 0.00 in0.0 mm 0.00 in0.0 mm 0.02 in0.5 mm
06:50 AM 52.6°F11.4°C 42.7°F5.9°C 69% 11.0 mph W17.7 kmh W 28.0 mph45.1 kmh 30.03 in1016.9 mb 0.00 in0.0 mm 0.00 in0.0 mm 0.02 in0.5 mm
06:55 AM 52.6°F11.4°C 42.7°F5.9°C 69% 18.0 mph SW29.0 kmh SW 29.0 mph46.7 kmh 30.04 in1017.3 mb 0.00 in0.0 mm 0.00 in0.0 mm 0.02 in0.5 mm
07:00 AM 52.6°F11.4°C 42.7°F5.9°C 69% 18.0 mph SW29.0 kmh SW 25.0 mph40.2 kmh 30.04 in1017.3 mb 0.00 in0.0 mm 0.00 in0.0 mm 0.02 in0.5 mm
07:05 AM 52.5°F11.4°C 42.6°F5.9°C 69% 12.0 mph WSW19.3 kmh WSW 26.0 mph41.8 kmh 30.05 in1017.6 mb 0.00 in0.0 mm 0.00 in0.0 mm 0.02 in0.5 mm
07:10 AM 52.5°F11.4°C 43.0°F6.1°C 70% 18.0 mph W29.0 kmh W 29.0 mph46.7 kmh 30.06 in1017.9 mb 0.00 in0.0 mm 0.00 in0.0 mm 0.02 in0.5 mm
07:15 AM 52.3°F11.3°C 43.1°F6.2°C 71% 14.0 mph WSW22.5 kmh WSW 27.0 mph43.5 kmh 30.06 in1017.9 mb 0.00 in0.0 mm 0.00 in0.0 mm 0.02 in0.5 mm
07:20 AM 52.3°F11.3°C 43.1°F6.2°C 71% 27.0 mph W43.5 kmh W 28.0 mph45.1 kmh 30.06 in1017.9 mb 0.00 in0.0 mm 0.00 in0.0 mm 0.02 in0.5 mm
07:25 AM 52.0°F11.1°C 43.9°F6.6°C 74% 17.0 mph WSW27.4 kmh WSW 28.0 mph45.1 kmh 30.06 in1017.9 mb 0.00 in0.0 mm 0.00 in0.0 mm 0.02 in0.5 mm
07:30 AM 51.4°F10.8°C 44.7°F7.1°C 78% 18.0 mph WSW29.0 kmh WSW 31.0 mph49.9 kmh 30.07 in1018.3 mb 0.00 in0.0 mm 0.00 in0.0 mm 0.02 in0.5 mm
07:35 AM 50.5°F10.3°C 44.5°F6.9°C 80% 10.0 mph SSW16.1 kmh SSW 30.0 mph48.3 kmh 30.06 in1017.9 mb 0.00 in0.0 mm 0.00 in0.0 mm 0.02 in0.5 mm
07:40 AM 50.2°F10.1°C 44.9°F7.2°C 82% 20.0 mph SW32.2 kmh SW 29.0 mph46.7 kmh 30.07 in1018.3 mb 0.00 in0.0 mm 0.00 in0.0 mm 0.02 in0.5 mm
07:45 AM 49.9°F9.9°C 44.9°F7.2°C 83% 10.0 mph SW16.1 kmh SW 21.0 mph33.8 kmh 30.07 in1018.3 mb 0.00 in0.0 mm 0.00 in0.0 mm 0.02 in0.5 mm
07:50 AM 49.7°F9.8°C 45.0°F7.2°C 84% 16.0 mph WSW25.7 kmh WSW 24.0 mph38.6 kmh 30.07 in1018.3 mb 0.00 in0.0 mm 0.00 in0.0 mm 0.02 in0.5 mm
07:55 AM 49.7°F9.8°C 45.0°F7.2°C 84% 20.0 mph W32.2 kmh W 22.0 mph35.4 kmh 30.08 in1018.6 mb 0.00 in0.0 mm 0.00 in0.0 mm 0.02 in0.5 mm
08:00 AM 49.9°F9.9°C 45.2°F7.3°C 84% 12.0 mph WSW19.3 kmh WSW 25.0 mph40.2 kmh 30.08 in1018.6 mb 0.00 in0.0 mm 0.00 in0.0 mm 0.02 in0.5 mm
08:05 AM 50.2°F10.1°C 44.9°F7.2°C 82% 7.0 mph WSW11.3 kmh WSW 24.0 mph38.6 kmh 30.07 in1018.3 mb 0.00 in0.0 mm 0.00 in0.0 mm 0.02 in0.5 mm
08:10 AM 50.5°F10.3°C 44.8°F7.1°C 81% 22.0 mph WSW35.4 kmh WSW 24.0 mph38.6 kmh 30.07 in1018.3 mb 0.00 in0.0 mm 0.00 in0.0 mm 0.02 in0.5 mm
08:15 AM 50.9°F10.5°C 44.9°F7.2°C 80% 16.0 mph WSW25.7 kmh WSW 27.0 mph43.5 kmh 30.06 in1017.9 mb 0.00 in0.0 mm 0.00 in0.0 mm 0.02 in0.5 mm
08:20 AM 51.0°F10.6°C 45.0°F7.2°C 80% 21.0 mph W33.8 kmh W 25.0 mph40.2 kmh 30.07 in1018.3 mb 0.00 in0.0 mm 0.00 in0.0 mm 0.02 in0.5 mm
08:25 AM 51.4°F10.8°C 45.1°F7.3°C 79% 15.0 mph W24.1 kmh W 28.0 mph45.1 kmh 30.07 in1018.3 mb 0.00 in0.0 mm 0.00 in0.0 mm 0.02 in0.5 mm
08:30 AM 51.5°F10.8°C 44.8°F7.1°C 78% 16.0 mph W25.7 kmh W 24.0 mph38.6 kmh 30.07 in1018.3 mb 0.00 in0.0 mm 0.00 in0.0 mm 0.02 in0.5 mm
08:35 AM 51.7°F10.9°C 45.0°F7.2°C 78% 16.0 mph WSW25.7 kmh WSW 26.0 mph41.8 kmh 30.07 in1018.3 mb 0.00 in0.0 mm 0.00 in0.0 mm 0.02 in0.5 mm
08:40 AM 51.9°F11.1°C 44.9°F7.2°C 77% 19.0 mph WSW30.6 kmh WSW 31.0 mph49.9 kmh 30.07 in1018.3 mb 0.00 in0.0 mm 0.00 in0.0 mm 0.02 in0.5 mm
08:45 AM 51.9°F11.1°C 44.9°F7.2°C 77% 17.0 mph WSW27.4 kmh WSW 22.0 mph35.4 kmh 30.07 in1018.3 mb 0.00 in0.0 mm 0.00 in0.0 mm 0.02 in0.5 mm
08:50 AM 51.8°F11.0°C 45.1°F7.3°C 78% 21.0 mph SW33.8 kmh SW 26.0 mph41.8 kmh 30.07 in1018.3 mb 0.00 in0.0 mm 0.00 in0.0 mm 0.02 in0.5 mm
08:55 AM 51.9°F11.1°C 45.2°F7.3°C 78% 13.0 mph SSW20.9 kmh SSW 27.0 mph43.5 kmh 30.07 in1018.3 mb 0.00 in0.0 mm 0.00 in0.0 mm 0.02 in0.5 mm
09:00 AM 52.0°F11.1°C 45.0°F7.2°C 77% 21.0 mph WSW33.8 kmh WSW 28.0 mph45.1 kmh 30.07 in1018.3 mb 0.00 in0.0 mm 0.00 in0.0 mm 0.02 in0.5 mm
09:05 AM 52.1°F11.2°C 45.4°F7.4°C 78% 24.0 mph WSW38.6 kmh WSW 30.0 mph48.3 kmh 30.07 in1018.3 mb 0.00 in0.0 mm 0.00 in0.0 mm 0.02 in0.5 mm
09:10 AM 52.2°F11.2°C 45.2°F7.3°C 77% 16.0 mph WSW25.7 kmh WSW 32.0 mph51.5 kmh 30.06 in1017.9 mb 0.00 in0.0 mm 0.00 in0.0 mm 0.02 in0.5 mm
09:15 AM 52.2°F11.2°C 45.5°F7.5°C 78% 32.0 mph WSW51.5 kmh WSW 32.0 mph51.5 kmh 30.07 in1018.3 mb 0.00 in0.0 mm 0.00 in0.0 mm 0.02 in0.5 mm
09:20 AM 52.3°F11.3°C 45.3°F7.4°C 77% 15.0 mph WSW24.1 kmh WSW 33.0 mph53.1 kmh 30.07 in1018.3 mb 0.00 in0.0 mm 0.00 in0.0 mm 0.02 in0.5 mm
09:25 AM 52.3°F11.3°C 45.6°F7.6°C 78% 18.0 mph WSW29.0 kmh WSW 22.0 mph35.4 kmh 30.07 in1018.3 mb 0.00 in0.0 mm 0.00 in0.0 mm 0.02 in0.5 mm
09:30 AM 52.5°F11.4°C 45.8°F7.7°C 78% 17.0 mph SW27.4 kmh SW 28.0 mph45.1 kmh 30.07 in1018.3 mb 0.00 in0.0 mm 0.00 in0.0 mm 0.02 in0.5 mm
09:35 AM 52.6°F11.4°C 45.9°F7.7°C 78% 21.0 mph WSW33.8 kmh WSW 29.0 mph46.7 kmh 30.07 in1018.3 mb 0.00 in0.0 mm 0.00 in0.0 mm 0.02 in0.5 mm
09:40 AM 52.7°F11.5°C 45.6°F7.6°C 77% 17.0 mph W27.4 kmh W 30.0 mph48.3 kmh 30.07 in1018.3 mb 0.00 in0.0 mm 0.00 in0.0 mm 0.02 in0.5 mm
09:45 AM 52.6°F11.4°C 45.9°F7.7°C 78% 22.0 mph WSW35.4 kmh WSW 29.0 mph46.7 kmh 30.07 in1018.3 mb 0.00 in0.0 mm 0.00 in0.0 mm 0.02 in0.5 mm
09:50 AM 52.7°F11.5°C 45.6°F7.6°C 77% 13.0 mph WSW20.9 kmh WSW 29.0 mph46.7 kmh 30.07 in1018.3 mb 0.00 in0.0 mm 0.00 in0.0 mm 0.02 in0.5 mm
09:55 AM 52.7°F11.5°C 46.0°F7.8°C 78% 10.0 mph W16.1 kmh W 35.0 mph56.3 kmh 30.08 in1018.6 mb 0.00 in0.0 mm 0.00 in0.0 mm 0.02 in0.5 mm
10:00 AM 52.8°F11.6°C 46.1°F7.8°C 78% 20.0 mph WSW32.2 kmh WSW 31.0 mph49.9 kmh 30.08 in1018.6 mb 0.00 in0.0 mm 0.00 in0.0 mm 0.02 in0.5 mm
10:05 AM 52.8°F11.6°C 46.1°F7.8°C 78% 18.0 mph W29.0 kmh W 27.0 mph43.5 kmh 30.08 in1018.6 mb 0.00 in0.0 mm 0.00 in0.0 mm 0.02 in0.5 mm
10:10 AM 52.8°F11.6°C 46.1°F7.8°C 78% 21.0 mph W33.8 kmh W 25.0 mph40.2 kmh 30.08 in1018.6 mb 0.00 in0.0 mm 0.00 in0.0 mm 0.02 in0.5 mm
10:15 AM 52.9°F11.6°C 46.2°F7.9°C 78% 16.0 mph W25.7 kmh W 27.0 mph43.5 kmh 30.08 in1018.6 mb 0.00 in0.0 mm 0.00 in0.0 mm 0.02 in0.5 mm
10:20 AM 52.8°F11.6°C 46.1°F7.8°C 78% 17.0 mph NW27.4 kmh NW 29.0 mph46.7 kmh 30.08 in1018.6 mb 0.00 in0.0 mm 0.00 in0.0 mm 0.02 in0.5 mm
10:25 AM 52.8°F11.6°C 46.1°F7.8°C 78% 11.0 mph WNW17.7 kmh WNW 32.0 mph51.5 kmh 30.08 in1018.6 mb 0.00 in0.0 mm 0.00 in0.0 mm 0.02 in0.5 mm
10:30 AM 52.7°F11.5°C 46.0°F7.8°C 78% 17.0 mph WSW27.4 kmh WSW 25.0 mph40.2 kmh 30.08 in1018.6 mb 0.00 in0.0 mm 0.00 in0.0 mm 0.02 in0.5 mm
10:35 AM 52.7°F11.5°C 46.0°F7.8°C 78% 12.0 mph W19.3 kmh W 28.0 mph45.1 kmh 30.08 in1018.6 mb 0.00 in0.0 mm 0.00 in0.0 mm 0.02 in0.5 mm
10:40 AM 52.7°F11.5°C 46.3°F7.9°C 79% 16.0 mph W25.7 kmh W 26.0 mph41.8 kmh 30.09 in1019.0 mb 0.00 in0.0 mm 0.00 in0.0 mm 0.02 in0.5 mm
10:45 AM 52.6°F11.4°C 46.2°F7.9°C 79% 17.0 mph WSW27.4 kmh WSW 24.0 mph38.6 kmh 30.09 in1019.0 mb 0.00 in0.0 mm 0.00 in0.0 mm 0.02 in0.5 mm
10:50 AM 52.5°F11.4°C 46.1°F7.8°C 79% 16.0 mph SSW25.7 kmh SSW 27.0 mph43.5 kmh 30.09 in1019.0 mb 0.00 in0.0 mm 0.00 in0.0 mm 0.02 in0.5 mm
10:55 AM 52.5°F11.4°C 46.5°F8.1°C 80% 18.0 mph WSW29.0 kmh WSW 28.0 mph45.1 kmh 30.09 in1019.0 mb 0.00 in0.0 mm 0.00 in0.0 mm 0.02 in0.5 mm
11:00 AM 52.5°F11.4°C 46.5°F8.1°C 80% 20.0 mph W32.2 kmh W 28.0 mph45.1 kmh 30.09 in1019.0 mb 0.00 in0.0 mm 0.00 in0.0 mm 0.02 in0.5 mm
11:05 AM 52.5°F11.4°C 46.8°F8.2°C 81% 16.0 mph WSW25.7 kmh WSW 25.0 mph40.2 kmh 30.10 in1019.3 mb 0.00 in0.0 mm 0.00 in0.0 mm 0.02 in0.5 mm
11:10 AM 52.5°F11.4°C 46.8°F8.2°C 81% 17.0 mph WSW27.4 kmh WSW 26.0 mph41.8 kmh 30.10 in1019.3 mb 0.00 in0.0 mm 0.00 in0.0 mm 0.02 in0.5 mm
11:15 AM 52.4°F11.3°C 47.0°F8.3°C 82% 21.0 mph WSW33.8 kmh WSW 29.0 mph46.7 kmh 30.10 in1019.3 mb 0.00 in0.0 mm 0.00 in0.0 mm 0.02 in0.5 mm
11:20 AM 52.4°F11.3°C 47.0°F8.3°C 82% 14.0 mph WSW22.5 kmh WSW 25.0 mph40.2 kmh 30.11 in1019.6 mb 0.00 in0.0 mm 0.00 in0.0 mm 0.02 in0.5 mm
11:25 AM 52.4°F11.3°C 47.0°F8.3°C 82% 21.0 mph WSW33.8 kmh WSW 30.0 mph48.3 kmh 30.10 in1019.3 mb 0.00 in0.0 mm 0.00 in0.0 mm 0.02 in0.5 mm
11:30 AM 52.4°F11.3°C 47.0°F8.3°C 82% 19.0 mph WSW30.6 kmh WSW 28.0 mph45.1 kmh 30.10 in1019.3 mb 0.00 in0.0 mm 0.00 in0.0 mm 0.02 in0.5 mm
11:35 AM 52.4°F11.3°C 47.0°F8.3°C 82% 14.0 mph SW22.5 kmh SW 30.0 mph48.3 kmh 30.10 in1019.3 mb 0.00 in0.0 mm 0.00 in0.0 mm 0.02 in0.5 mm
11:40 AM 52.4°F11.3°C 47.3°F8.5°C 83% 15.0 mph W24.1 kmh W 28.0 mph45.1 kmh 30.10 in1019.3 mb 0.00 in0.0 mm 0.00 in0.0 mm 0.02 in0.5 mm
11:45 AM 52.3°F11.3°C 47.6°F8.7°C 84% 18.0 mph SSW29.0 kmh SSW 24.0 mph38.6 kmh 30.10 in1019.3 mb 0.00 in0.0 mm 0.00 in0.0 mm 0.02 in0.5 mm
11:50 AM 52.1°F11.2°C 47.7°F8.7°C 85% 11.0 mph WSW17.7 kmh WSW 26.0 mph41.8 kmh 30.10 in1019.3 mb 0.00 in0.0 mm 0.00 in0.0 mm 0.02 in0.5 mm
11:55 AM 52.1°F11.2°C 48.0°F8.9°C 86% 11.0 mph WNW17.7 kmh WNW 22.0 mph35.4 kmh 30.09 in1019.0 mb 0.00 in0.0 mm 0.00 in0.0 mm 0.02 in0.5 mm
12:00 PM 52.3°F11.3°C 47.9°F8.8°C 85% 23.0 mph WSW37.0 kmh WSW 28.0 mph45.1 kmh 30.10 in1019.3 mb 0.00 in0.0 mm 0.00 in0.0 mm 0.02 in0.5 mm
12:05 PM 52.6°F11.4°C 48.2°F9.0°C 85% 17.0 mph WSW27.4 kmh WSW 27.0 mph43.5 kmh 30.10 in1019.3 mb 0.00 in0.0 mm 0.00 in0.0 mm 0.02 in0.5 mm
12:10 PM 52.9°F11.6°C 48.1°F8.9°C 84% 14.0 mph WSW22.5 kmh WSW 22.0 mph35.4 kmh 30.10 in1019.3 mb 0.00 in0.0 mm 0.00 in0.0 mm 0.02 in0.5 mm
12:15 PM 52.9°F11.6°C 48.1°F8.9°C 84% 16.0 mph WSW25.7 kmh WSW 26.0 mph41.8 kmh 30.09 in1019.0 mb 0.00 in0.0 mm 0.00 in0.0 mm 0.02 in0.5 mm
12:20 PM 52.9°F11.6°C 47.8°F8.8°C 83% 13.0 mph WNW20.9 kmh WNW 25.0 mph40.2 kmh 30.09 in1019.0 mb 0.00 in0.0 mm 0.00 in0.0 mm 0.02 in0.5 mm
12:25 PM 53.0°F11.7°C 47.9°F8.8°C 83% 15.0 mph SW24.1 kmh SW 27.0 mph43.5 kmh 30.09 in1019.0 mb 0.00 in0.0 mm 0.00 in0.0 mm 0.02 in0.5 mm
12:30 PM 53.0°F11.7°C 47.9°F8.8°C 83% 25.0 mph W40.2 kmh W 28.0 mph45.1 kmh 30.09 in1019.0 mb 0.00 in0.0 mm 0.00 in0.0 mm 0.02 in0.5 mm
12:35 PM 53.1°F11.7°C 48.0°F8.9°C 83% 11.0 mph SW17.7 kmh SW 25.0 mph40.2 kmh 30.09 in1019.0 mb 0.00 in0.0 mm 0.00 in0.0 mm 0.02 in0.5 mm
12:40 PM 53.1°F11.7°C 48.0°F8.9°C 83% 8.0 mph SW12.9 kmh SW 26.0 mph41.8 kmh 30.09 in1019.0 mb 0.00 in0.0 mm 0.00 in0.0 mm 0.02 in0.5 mm
12:45 PM 53.1°F11.7°C 48.0°F8.9°C 83% 12.0 mph WSW19.3 kmh WSW 33.0 mph53.1 kmh 30.09 in1019.0 mb 0.00 in0.0 mm 0.00 in0.0 mm 0.02 in0.5 mm
12:50 PM 53.2°F11.8°C 47.8°F8.8°C 82% 13.0 mph W20.9 kmh W 26.0 mph41.8 kmh 30.09 in1019.0 mb 0.00 in0.0 mm 0.00 in0.0 mm 0.02 in0.5 mm
12:55 PM 53.2°F11.8°C 47.8°F8.8°C 82% 20.0 mph WSW32.2 kmh WSW 26.0 mph41.8 kmh 30.10 in1019.3 mb 0.00 in0.0 mm 0.00 in0.0 mm 0.02 in0.5 mm
01:00 PM 53.3°F11.8°C 47.9°F8.8°C 82% 13.0 mph W20.9 kmh W 26.0 mph41.8 kmh 30.09 in1019.0 mb 0.00 in0.0 mm 0.00 in0.0 mm 0.02 in0.5 mm
01:05 PM 53.5°F11.9°C 48.1°F8.9°C 82% 15.0 mph WSW24.1 kmh WSW 23.0 mph37.0 kmh 30.09 in1019.0 mb 0.00 in0.0 mm 0.00 in0.0 mm 0.02 in0.5 mm
01:10 PM 53.5°F11.9°C 48.1°F8.9°C 82% 21.0 mph WSW33.8 kmh WSW 25.0 mph40.2 kmh 30.10 in1019.3 mb 0.00 in0.0 mm 0.00 in0.0 mm 0.02 in0.5 mm
01:15 PM 53.5°F11.9°C 48.4°F9.1°C 83% 11.0 mph WSW17.7 kmh WSW 36.0 mph57.9 kmh 30.10 in1019.3 mb 0.00 in0.0 mm 0.00 in0.0 mm 0.02 in0.5 mm
01:20 PM 53.3°F11.8°C 48.5°F9.2°C 84% 10.0 mph WSW16.1 kmh WSW 26.0 mph41.8 kmh 30.10 in1019.3 mb 0.00 in0.0 mm 0.00 in0.0 mm 0.02 in0.5 mm
01:25 PM 53.2°F11.8°C 48.4°F9.1°C 84% 8.0 mph WSW12.9 kmh WSW 27.0 mph43.5 kmh 30.09 in1019.0 mb 0.00 in0.0 mm 0.00 in0.0 mm 0.02 in0.5 mm
01:30 PM 53.1°F11.7°C 48.3°F9.1°C 84% 13.0 mph SW20.9 kmh SW 27.0 mph43.5 kmh 30.09 in1019.0 mb 0.00 in0.0 mm 0.00 in0.0 mm 0.02 in0.5 mm
01:35 PM 53.2°F11.8°C 48.4°F9.1°C 84% 13.0 mph SW20.9 kmh SW 24.0 mph38.6 kmh 30.09 in1019.0 mb 0.00 in0.0 mm 0.00 in0.0 mm 0.02 in0.5 mm
01:40 PM 53.3°F11.8°C 48.5°F9.2°C 84% 25.0 mph SW40.2 kmh SW 25.0 mph40.2 kmh 30.09 in1019.0 mb 0.00 in0.0 mm 0.00 in0.0 mm 0.02 in0.5 mm
01:45 PM 53.5°F11.9°C 48.7°F9.3°C 84% 18.0 mph SW29.0 kmh SW 28.0 mph45.1 kmh 30.09 in1019.0 mb 0.00 in0.0 mm 0.00 in0.0 mm 0.02 in0.5 mm
01:50 PM 53.3°F11.8°C 48.9°F9.4°C 85% 15.0 mph WSW24.1 kmh WSW 31.0 mph49.9 kmh 30.09 in1019.0 mb 0.00 in0.0 mm 0.00 in0.0 mm 0.02 in0.5 mm
01:55 PM 52.9°F11.6°C 48.8°F9.3°C 86% 15.0 mph WSW24.1 kmh WSW 26.0 mph41.8 kmh 30.09 in1019.0 mb 0.00 in0.0 mm 0.00 in0.0 mm 0.02 in0.5 mm
02:00 PM 52.7°F11.5°C 48.9°F9.4°C 87% 11.0 mph SW17.7 kmh SW 27.0 mph43.5 kmh 30.09 in1019.0 mb 0.00 in0.0 mm 0.00 in0.0 mm 0.02 in0.5 mm
02:05 PM 52.4°F11.3°C 48.9°F9.4°C 88% 16.0 mph NW25.7 kmh NW 22.0 mph35.4 kmh 30.11 in1019.6 mb 0.00 in0.0 mm 0.00 in0.0 mm 0.02 in0.5 mm
02:10 PM 52.3°F11.3°C 49.1°F9.5°C 89% 17.0 mph W27.4 kmh W 24.0 mph38.6 kmh 30.11 in1019.6 mb 0.00 in0.0 mm 0.00 in0.0 mm 0.02 in0.5 mm
02:15 PM 52.2°F11.2°C 49.0°F9.4°C 89% 6.0 mph WSW9.7 kmh WSW 20.0 mph32.2 kmh 30.11 in1019.6 mb 0.00 in0.0 mm 0.00 in0.0 mm 0.02 in0.5 mm
02:20 PM 52.2°F11.2°C 49.3°F9.6°C 90% 16.0 mph WSW25.7 kmh WSW 23.0 mph37.0 kmh 30.11 in1019.6 mb 0.01 in0.3 mm 0.12 in3.0 mm 0.03 in0.8 mm
02:25 PM 52.2°F11.2°C 49.3°F9.6°C 90% 11.0 mph WSW17.7 kmh WSW 24.0 mph38.6 kmh 30.11 in1019.6 mb 0.01 in0.3 mm 0.00 in0.0 mm 0.03 in0.8 mm
02:30 PM 52.1°F11.2°C 49.2°F9.6°C 90% 16.0 mph W25.7 kmh W 26.0 mph41.8 kmh 30.11 in1019.6 mb 0.02 in0.5 mm 0.12 in3.0 mm 0.04 in1.0 mm
02:35 PM 52.1°F11.2°C 49.2°F9.6°C 90% 17.0 mph WSW27.4 kmh WSW 24.0 mph38.6 kmh 30.11 in1019.6 mb 0.02 in0.5 mm 0.00 in0.0 mm 0.04 in1.0 mm
02:40 PM 51.9°F11.1°C 49.3°F9.6°C 91% 12.0 mph WSW19.3 kmh WSW 24.0 mph38.6 kmh 30.11 in1019.6 mb 0.02 in0.5 mm 0.00 in0.0 mm 0.04 in1.0 mm
02:45 PM 51.9°F11.1°C 49.3°F9.6°C 91% 12.0 mph SW19.3 kmh SW 22.0 mph35.4 kmh 30.12 in1020.0 mb 0.02 in0.5 mm 0.00 in0.0 mm 0.04 in1.0 mm
02:50 PM 51.9°F11.1°C 49.3°F9.6°C 91% 11.0 mph SW17.7 kmh SW 24.0 mph38.6 kmh 30.12 in1020.0 mb 0.02 in0.5 mm 0.00 in0.0 mm 0.05 in1.3 mm
02:55 PM 51.9°F11.1°C 49.3°F9.6°C 91% 13.0 mph WNW20.9 kmh WNW 24.0 mph38.6 kmh 30.12 in1020.0 mb 0.02 in0.5 mm 0.00 in0.0 mm 0.05 in1.3 mm
03:00 PM 52.0°F11.1°C 49.4°F9.7°C 91% 13.0 mph WSW20.9 kmh WSW 18.0 mph29.0 kmh 30.12 in1020.0 mb 0.02 in0.5 mm 0.00 in0.0 mm 0.05 in1.3 mm
03:05 PM 51.9°F11.1°C 49.3°F9.6°C 91% 11.0 mph WSW17.7 kmh WSW 22.0 mph35.4 kmh 30.13 in1020.3 mb 0.02 in0.5 mm 0.00 in0.0 mm 0.05 in1.3 mm
03:10 PM 52.0°F11.1°C 49.4°F9.7°C 91% 4.0 mph W6.4 kmh W 17.0 mph27.4 kmh 30.13 in1020.3 mb 0.03 in0.8 mm 0.12 in3.0 mm 0.06 in1.5 mm
03:15 PM 51.9°F11.1°C 49.6°F9.8°C 92% 11.0 mph W17.7 kmh W 15.0 mph24.1 kmh 30.13 in1020.3 mb 0.03 in0.8 mm 0.00 in0.0 mm 0.06 in1.5 mm
03:20 PM 51.9°F11.1°C 49.6°F9.8°C 92% 14.0 mph SW22.5 kmh SW 17.0 mph27.4 kmh 30.13 in1020.3 mb 0.03 in0.8 mm 0.00 in0.0 mm 0.06 in1.5 mm
03:25 PM 51.8°F11.0°C 49.5°F9.7°C 92% 12.0 mph W19.3 kmh W 21.0 mph33.8 kmh 30.13 in1020.3 mb 0.03 in0.8 mm 0.00 in0.0 mm 0.06 in1.5 mm
03:30 PM 51.8°F11.0°C 49.5°F9.7°C 92% 9.0 mph SW14.5 kmh SW 19.0 mph30.6 kmh 30.13 in1020.3 mb 0.02 in0.5 mm 0.00 in0.0 mm 0.06 in1.5 mm
03:35 PM 51.8°F11.0°C 49.8°F9.9°C 93% 8.0 mph WSW12.9 kmh WSW 18.0 mph29.0 kmh 30.13 in1020.3 mb 0.03 in0.8 mm 0.12 in3.0 mm 0.07 in1.8 mm
03:40 PM 51.8°F11.0°C 49.8°F9.9°C 93% 15.0 mph W24.1 kmh W 22.0 mph35.4 kmh 30.13 in1020.3 mb 0.03 in0.8 mm 0.00 in0.0 mm 0.07 in1.8 mm
03:45 PM 51.8°F11.0°C 49.8°F9.9°C 93% 12.0 mph W19.3 kmh W 21.0 mph33.8 kmh 30.13 in1020.3 mb 0.04 in1.0 mm 0.12 in3.0 mm 0.08 in2.0 mm
03:50 PM 51.8°F11.0°C 49.8°F9.9°C 93% 18.0 mph W29.0 kmh W 28.0 mph45.1 kmh 30.13 in1020.3 mb 0.03 in0.8 mm 0.00 in0.0 mm 0.08 in2.0 mm
03:55 PM 51.9°F11.1°C 49.9°F9.9°C 93% 14.0 mph WSW22.5 kmh WSW 30.0 mph48.3 kmh 30.14 in1020.7 mb 0.03 in0.8 mm 0.00 in0.0 mm 0.08 in2.0 mm
04:00 PM 51.9°F11.1°C 49.9°F9.9°C 93% 16.0 mph WSW25.7 kmh WSW 23.0 mph37.0 kmh 30.13 in1020.3 mb 0.03 in0.8 mm 0.00 in0.0 mm 0.08 in2.0 mm
04:05 PM 51.9°F11.1°C 49.6°F9.8°C 92% 15.0 mph W24.1 kmh W 21.0 mph33.8 kmh 30.13 in1020.3 mb 0.03 in0.8 mm 0.00 in0.0 mm 0.08 in2.0 mm
04:10 PM 51.9°F11.1°C 49.6°F9.8°C 92% 10.0 mph SW16.1 kmh SW 21.0 mph33.8 kmh 30.14 in1020.7 mb 0.03 in0.8 mm 0.00 in0.0 mm 0.09 in2.3 mm
04:15 PM 51.9°F11.1°C 49.6°F9.8°C 92% 12.0 mph WSW19.3 kmh WSW 21.0 mph33.8 kmh 30.14 in1020.7 mb 0.03 in0.8 mm 0.00 in0.0 mm 0.09 in2.3 mm
04:20 PM 51.9°F11.1°C 49.6°F9.8°C 92% 14.0 mph WSW22.5 kmh WSW 22.0 mph35.4 kmh 30.14 in1020.7 mb 0.02 in0.5 mm 0.00 in0.0 mm 0.09 in2.3 mm
04:25 PM 52.0°F11.1°C 49.7°F9.8°C 92% 11.0 mph SW17.7 kmh SW 22.0 mph35.4 kmh 30.14 in1020.7 mb 0.02 in0.5 mm 0.00 in0.0 mm 0.09 in2.3 mm
04:30 PM 52.0°F11.1°C 49.7°F9.8°C 92% 15.0 mph WSW24.1 kmh WSW 23.0 mph37.0 kmh 30.14 in1020.7 mb 0.02 in0.5 mm 0.00 in0.0 mm 0.09 in2.3 mm
04:35 PM 52.0°F11.1°C 49.7°F9.8°C 92% 12.0 mph WSW19.3 kmh WSW 22.0 mph35.4 kmh 30.14 in1020.7 mb 0.02 in0.5 mm 0.00 in0.0 mm 0.09 in2.3 mm
04:40 PM 52.1°F11.2°C 49.8°F9.9°C 92% 11.0 mph W17.7 kmh W 22.0 mph35.4 kmh 30.14 in1020.7 mb 0.02 in0.5 mm 0.00 in0.0 mm 0.09 in2.3 mm
04:45 PM 52.1°F11.2°C 49.8°F9.9°C 92% 10.0 mph WSW16.1 kmh WSW 20.0 mph32.2 kmh 30.15 in1021.0 mb 0.01 in0.3 mm 0.00 in0.0 mm 0.09 in2.3 mm
04:50 PM 52.1°F11.2°C 50.1°F10.1°C 93% 14.0 mph WSW22.5 kmh WSW 22.0 mph35.4 kmh 30.14 in1020.7 mb 0.02 in0.5 mm 0.12 in3.0 mm 0.09 in2.3 mm
04:55 PM 51.9°F11.1°C 49.9°F9.9°C 93% 15.0 mph SW24.1 kmh SW 19.0 mph30.6 kmh 30.15 in1021.0 mb 0.02 in0.5 mm 0.00 in0.0 mm 0.09 in2.3 mm
05:00 PM 52.0°F11.1°C 50.0°F10.0°C 93% 12.0 mph WSW19.3 kmh WSW 19.0 mph30.6 kmh 30.15 in1021.0 mb 0.02 in0.5 mm 0.00 in0.0 mm 0.09 in2.3 mm
05:05 PM 52.0°F11.1°C 50.0°F10.0°C 93% 17.0 mph W27.4 kmh W 20.0 mph32.2 kmh 30.15 in1021.0 mb 0.02 in0.5 mm 0.00 in0.0 mm 0.09 in2.3 mm
05:10 PM 51.9°F11.1°C 49.9°F9.9°C 93% 11.0 mph W17.7 kmh W 19.0 mph30.6 kmh 30.15 in1021.0 mb 0.01 in0.3 mm 0.00 in0.0 mm 0.09 in2.3 mm
05:15 PM 52.0°F11.1°C 50.0°F10.0°C 93% 9.0 mph W14.5 kmh W 19.0 mph30.6 kmh 30.15 in1021.0 mb 0.01 in0.3 mm 0.00 in0.0 mm 0.09 in2.3 mm
05:20 PM 52.0°F11.1°C 50.0°F10.0°C 93% 11.0 mph SW17.7 kmh SW 18.0 mph29.0 kmh 30.15 in1021.0 mb 0.01 in0.3 mm 0.00 in0.0 mm 0.09 in2.3 mm
05:25 PM 52.0°F11.1°C 50.0°F10.0°C 93% 19.0 mph WSW30.6 kmh WSW 21.0 mph33.8 kmh 30.15 in1021.0 mb 0.01 in0.3 mm 0.00 in0.0 mm 0.09 in2.3 mm
05:30 PM 52.1°F11.2°C 50.1°F10.1°C 93% 10.0 mph WSW16.1 kmh WSW 18.0 mph29.0 kmh 30.15 in1021.0 mb 0.01 in0.3 mm 0.00 in0.0 mm 0.09 in2.3 mm
05:35 PM 52.1°F11.2°C 49.8°F9.9°C 92% 11.0 mph W17.7 kmh W 19.0 mph30.6 kmh 30.16 in1021.3 mb 0.01 in0.3 mm 0.00 in0.0 mm 0.09 in2.3 mm
05:40 PM 52.2°F11.2°C 49.9°F9.9°C 92% 6.0 mph WSW9.7 kmh WSW 20.0 mph32.2 kmh 30.16 in1021.3 mb 0.01 in0.3 mm 0.00 in0.0 mm 0.09 in2.3 mm
05:45 PM 52.4°F11.3°C 50.1°F10.1°C 92% 16.0 mph SW25.7 kmh SW 24.0 mph38.6 kmh 30.15 in1021.0 mb 0.01 in0.3 mm 0.00 in0.0 mm 0.09 in2.3 mm
05:50 PM 52.4°F11.3°C 49.8°F9.9°C 91% 9.0 mph W14.5 kmh W 19.0 mph30.6 kmh 30.16 in1021.3 mb 0.00 in0.0 mm 0.00 in0.0 mm 0.09 in2.3 mm
05:55 PM 52.4°F11.3°C 49.8°F9.9°C 91% 9.0 mph WSW14.5 kmh WSW 18.0 mph29.0 kmh 30.15 in1021.0 mb 0.00 in0.0 mm 0.00 in0.0 mm 0.09 in2.3 mm
06:00 PM 52.4°F11.3°C 49.8°F9.9°C 91% 12.0 mph W19.3 kmh W 18.0 mph29.0 kmh 30.16 in1021.3 mb 0.00 in0.0 mm 0.00 in0.0 mm 0.09 in2.3 mm
06:05 PM 52.5°F11.4°C 49.9°F9.9°C 91% 10.0 mph W16.1 kmh W 18.0 mph29.0 kmh 30.15 in1021.0 mb 0.00 in0.0 mm 0.00 in0.0 mm 0.09 in2.3 mm
06:10 PM 52.5°F11.4°C 49.9°F9.9°C 91% 11.0 mph W17.7 kmh W 21.0 mph33.8 kmh 30.16 in1021.3 mb 0.00 in0.0 mm 0.00 in0.0 mm 0.09 in2.3 mm
06:15 PM 52.4°F11.3°C 50.1°F10.1°C 92% 7.0 mph W11.3 kmh W 17.0 mph27.4 kmh 30.15 in1021.0 mb 0.00 in0.0 mm 0.00 in0.0 mm 0.09 in2.3 mm
06:20 PM 52.2°F11.2°C 49.9°F9.9°C 92% 13.0 mph WSW20.9 kmh WSW 17.0 mph27.4 kmh 30.16 in1021.3 mb 0.00 in0.0 mm 0.00 in0.0 mm 0.09 in2.3 mm
06:25 PM 52.2°F11.2°C 50.2°F10.1°C 93% 7.0 mph W11.3 kmh W 17.0 mph27.4 kmh 30.16 in1021.3 mb 0.00 in0.0 mm 0.00 in0.0 mm 0.09 in2.3 mm
06:30 PM 52.1°F11.2°C 50.1°F10.1°C 93% 10.0 mph WSW16.1 kmh WSW 17.0 mph27.4 kmh 30.16 in1021.3 mb 0.00 in0.0 mm 0.00 in0.0 mm 0.09 in2.3 mm
06:35 PM 52.1°F11.2°C 50.1°F10.1°C 93% 12.0 mph W19.3 kmh W 22.0 mph35.4 kmh 30.16 in1021.3 mb 0.00 in0.0 mm 0.00 in0.0 mm 0.09 in2.3 mm
06:40 PM 52.0°F11.1°C 50.0°F10.0°C 93% 15.0 mph WSW24.1 kmh WSW 19.0 mph30.6 kmh 30.16 in1021.3 mb 0.01 in0.3 mm 0.12 in3.0 mm 0.10 in2.5 mm
06:45 PM 52.1°F11.2°C 50.1°F10.1°C 93% 15.0 mph WSW24.1 kmh WSW 16.0 mph25.7 kmh 30.17 in1021.7 mb 0.01 in0.3 mm 0.00 in0.0 mm 0.10 in2.5 mm
06:50 PM 52.1°F11.2°C 50.4°F10.2°C 94% 9.0 mph WSW14.5 kmh WSW 16.0 mph25.7 kmh 30.17 in1021.7 mb 0.01 in0.3 mm 0.00 in0.0 mm 0.10 in2.5 mm
06:55 PM 52.1°F11.2°C 50.1°F10.1°C 93% 10.0 mph W16.1 kmh W 17.0 mph27.4 kmh 30.17 in1021.7 mb 0.01 in0.3 mm 0.00 in0.0 mm 0.10 in2.5 mm
07:00 PM 52.1°F11.2°C 50.4°F10.2°C 94% 11.0 mph WSW17.7 kmh WSW 17.0 mph27.4 kmh 30.17 in1021.7 mb 0.01 in0.3 mm 0.00 in0.0 mm 0.10 in2.5 mm
07:05 PM 52.0°F11.1°C 50.3°F10.2°C 94% 12.0 mph SW19.3 kmh SW 18.0 mph29.0 kmh 30.18 in1022.0 mb 0.01 in0.3 mm 0.00 in0.0 mm 0.10 in2.5 mm
07:10 PM 52.1°F11.2°C 50.4°F10.2°C 94% 12.0 mph W19.3 kmh W 16.0 mph25.7 kmh 30.18 in1022.0 mb 0.02 in0.5 mm 0.12 in3.0 mm 0.11 in2.8 mm
07:15 PM 52.1°F11.2°C 50.4°F10.2°C 94% 13.0 mph WSW20.9 kmh WSW 18.0 mph29.0 kmh 30.18 in1022.0 mb 0.02 in0.5 mm 0.00 in0.0 mm 0.11 in2.8 mm
07:20 PM 52.1°F11.2°C 50.4°F10.2°C 94% 12.0 mph WSW19.3 kmh WSW 16.0 mph25.7 kmh 30.18 in1022.0 mb 0.02 in0.5 mm 0.00 in0.0 mm 0.11 in2.8 mm
07:25 PM 52.1°F11.2°C 50.4°F10.2°C 94% 10.0 mph WSW16.1 kmh WSW 17.0 mph27.4 kmh 30.18 in1022.0 mb 0.02 in0.5 mm 0.00 in0.0 mm 0.12 in3.0 mm
07:30 PM 52.1°F11.2°C 50.4°F10.2°C 94% 14.0 mph W22.5 kmh W 18.0 mph29.0 kmh 30.19 in1022.4 mb 0.02 in0.5 mm 0.00 in0.0 mm 0.12 in3.0 mm
07:35 PM 52.1°F11.2°C 50.4°F10.2°C 94% 10.0 mph W16.1 kmh W 18.0 mph29.0 kmh 30.19 in1022.4 mb 0.02 in0.5 mm 0.00 in0.0 mm 0.12 in3.0 mm
07:40 PM 52.0°F11.1°C 50.3°F10.2°C 94% 13.0 mph WSW20.9 kmh WSW 19.0 mph30.6 kmh 30.19 in1022.4 mb 0.02 in0.5 mm 0.00 in0.0 mm 0.13 in3.3 mm
07:45 PM 52.1°F11.2°C 50.4°F10.2°C 94% 10.0 mph WSW16.1 kmh WSW 19.0 mph30.6 kmh 30.19 in1022.4 mb 0.02 in0.5 mm 0.00 in0.0 mm 0.13 in3.3 mm
07:50 PM 52.1°F11.2°C 50.4°F10.2°C 94% 7.0 mph SW11.3 kmh SW 21.0 mph33.8 kmh 30.19 in1022.4 mb 0.02 in0.5 mm 0.00 in0.0 mm 0.13 in3.3 mm
07:55 PM 52.0°F11.1°C 50.3°F10.2°C 94% 12.0 mph WNW19.3 kmh WNW 18.0 mph29.0 kmh 30.19 in1022.4 mb 0.02 in0.5 mm 0.00 in0.0 mm 0.13 in3.3 mm
08:00 PM 52.0°F11.1°C 50.3°F10.2°C 94% 10.0 mph W16.1 kmh W 18.0 mph29.0 kmh 30.19 in1022.4 mb 0.02 in0.5 mm 0.00 in0.0 mm 0.13 in3.3 mm
08:05 PM 52.0°F11.1°C 50.3°F10.2°C 94% 5.0 mph W8.0 kmh W 16.0 mph25.7 kmh 30.19 in1022.4 mb 0.02 in0.5 mm 0.00 in0.0 mm 0.13 in3.3 mm
08:10 PM 52.0°F11.1°C 50.3°F10.2°C 94% 5.0 mph WNW8.0 kmh WNW 16.0 mph25.7 kmh 30.19 in1022.4 mb 0.02 in0.5 mm 0.00 in0.0 mm 0.13 in3.3 mm
08:15 PM 52.0°F11.1°C 50.3°F10.2°C 94% 8.0 mph W12.9 kmh W 14.0 mph22.5 kmh 30.19 in1022.4 mb 0.02 in0.5 mm 0.00 in0.0 mm 0.13 in3.3 mm
08:20 PM 52.0°F11.1°C 50.3°F10.2°C 94% 9.0 mph WSW14.5 kmh WSW 14.0 mph22.5 kmh 30.19 in1022.4 mb 0.02 in0.5 mm 0.00 in0.0 mm 0.13 in3.3 mm
08:25 PM 52.0°F11.1°C 50.3°F10.2°C 94% 6.0 mph WSW9.7 kmh WSW 14.0 mph22.5 kmh 30.19 in1022.4 mb 0.01 in0.3 mm 0.00 in0.0 mm 0.13 in3.3 mm
08:30 PM 52.0°F11.1°C 50.3°F10.2°C 94% 14.0 mph WSW22.5 kmh WSW 16.0 mph25.7 kmh 30.19 in1022.4 mb 0.01 in0.3 mm 0.00 in0.0 mm 0.13 in3.3 mm
08:35 PM 52.0°F11.1°C 50.3°F10.2°C 94% 8.0 mph WSW12.9 kmh WSW 16.0 mph25.7 kmh 30.19 in1022.4 mb 0.01 in0.3 mm 0.00 in0.0 mm 0.13 in3.3 mm
08:40 PM 52.0°F11.1°C 50.3°F10.2°C 94% 12.0 mph W19.3 kmh W 14.0 mph22.5 kmh 30.19 in1022.4 mb 0.00 in0.0 mm 0.00 in0.0 mm 0.13 in3.3 mm
08:45 PM 52.0°F11.1°C 50.3°F10.2°C 94% 9.0 mph W14.5 kmh W 14.0 mph22.5 kmh 30.19 in1022.4 mb 0.00 in0.0 mm 0.00 in0.0 mm 0.13 in3.3 mm
08:50 PM 51.9°F11.1°C 50.2°F10.1°C 94% 12.0 mph SW19.3 kmh SW 14.0 mph22.5 kmh 30.19 in1022.4 mb 0.00 in0.0 mm 0.00 in0.0 mm 0.13 in3.3 mm
08:55 PM 52.0°F11.1°C 50.3°F10.2°C 94% 9.0 mph SW14.5 kmh SW 16.0 mph25.7 kmh 30.19 in1022.4 mb 0.00 in0.0 mm 0.00 in0.0 mm 0.13 in3.3 mm
09:00 PM 52.0°F11.1°C 50.3°F10.2°C 94% 6.0 mph WSW9.7 kmh WSW 16.0 mph25.7 kmh 30.19 in1022.4 mb 0.00 in0.0 mm 0.00 in0.0 mm 0.13 in3.3 mm
09:05 PM 52.0°F11.1°C 50.3°F10.2°C 94% 10.0 mph WSW16.1 kmh WSW 14.0 mph22.5 kmh 30.19 in1022.4 mb 0.00 in0.0 mm 0.00 in0.0 mm 0.13 in3.3 mm
09:10 PM 52.1°F11.2°C 50.4°F10.2°C 94% 10.0 mph WSW16.1 kmh WSW 17.0 mph27.4 kmh 30.19 in1022.4 mb 0.00 in0.0 mm 0.00 in0.0 mm 0.13 in3.3 mm
09:15 PM 52.0°F11.1°C 50.3°F10.2°C 94% 9.0 mph SW14.5 kmh SW 17.0 mph27.4 kmh 30.19 in1022.4 mb 0.00 in0.0 mm 0.00 in0.0 mm 0.13 in3.3 mm
09:20 PM 52.1°F11.2°C 50.4°F10.2°C 94% 10.0 mph WSW16.1 kmh WSW 17.0 mph27.4 kmh 30.19 in1022.4 mb 0.00 in0.0 mm 0.00 in0.0 mm 0.13 in3.3 mm
09:25 PM 52.1°F11.2°C 50.4°F10.2°C 94% 10.0 mph WSW16.1 kmh WSW 18.0 mph29.0 kmh 30.19 in1022.4 mb 0.00 in0.0 mm 0.00 in0.0 mm 0.13 in3.3 mm
09:30 PM 52.1°F11.2°C 50.4°F10.2°C 94% 11.0 mph WNW17.7 kmh WNW 14.0 mph22.5 kmh 30.19 in1022.4 mb 0.00 in0.0 mm 0.00 in0.0 mm 0.13 in3.3 mm
09:35 PM 52.1°F11.2°C 50.4°F10.2°C 94% 6.0 mph SW9.7 kmh SW 17.0 mph27.4 kmh 30.19 in1022.4 mb 0.00 in0.0 mm 0.00 in0.0 mm 0.13 in3.3 mm
09:40 PM 52.1°F11.2°C 50.4°F10.2°C 94% 10.0 mph WSW16.1 kmh WSW 17.0 mph27.4 kmh 30.19 in1022.4 mb 0.00 in0.0 mm 0.00 in0.0 mm 0.13 in3.3 mm
09:45 PM 52.1°F11.2°C 50.4°F10.2°C 94% 9.0 mph WSW14.5 kmh WSW 18.0 mph29.0 kmh 30.19 in1022.4 mb 0.00 in0.0 mm 0.00 in0.0 mm 0.13 in3.3 mm
09:50 PM 52.1°F11.2°C 50.4°F10.2°C 94% 8.0 mph SW12.9 kmh SW 17.0 mph27.4 kmh 30.19 in1022.4 mb 0.00 in0.0 mm 0.00 in0.0 mm 0.13 in3.3 mm
09:55 PM 52.1°F11.2°C 50.4°F10.2°C 94% 12.0 mph W19.3 kmh W 17.0 mph27.4 kmh 30.19 in1022.4 mb 0.00 in0.0 mm 0.00 in0.0 mm 0.13 in3.3 mm
10:00 PM 52.1°F11.2°C 50.4°F10.2°C 94% 10.0 mph WSW16.1 kmh WSW 14.0 mph22.5 kmh 30.19 in1022.4 mb 0.00 in0.0 mm 0.00 in0.0 mm 0.13 in3.3 mm
10:05 PM 52.1°F11.2°C 50.4°F10.2°C 94% 6.0 mph WSW9.7 kmh WSW 13.0 mph20.9 kmh 30.19 in1022.4 mb 0.00 in0.0 mm 0.00 in0.0 mm 0.13 in3.3 mm
10:10 PM 52.1°F11.2°C 50.4°F10.2°C 94% 6.0 mph SW9.7 kmh SW 17.0 mph27.4 kmh 30.19 in1022.4 mb 0.00 in0.0 mm 0.00 in0.0 mm 0.13 in3.3 mm
10:15 PM 52.1°F11.2°C 50.4°F10.2°C 94% 7.0 mph W11.3 kmh W 16.0 mph25.7 kmh 30.19 in1022.4 mb 0.00 in0.0 mm 0.00 in0.0 mm 0.13 in3.3 mm
10:20 PM 52.1°F11.2°C 50.4°F10.2°C 94% 10.0 mph W16.1 kmh W 16.0 mph25.7 kmh 30.19 in1022.4 mb 0.00 in0.0 mm 0.00 in0.0 mm 0.13 in3.3 mm
10:25 PM 52.1°F11.2°C 50.4°F10.2°C 94% 10.0 mph W16.1 kmh W 17.0 mph27.4 kmh 30.19 in1022.4 mb 0.00 in0.0 mm 0.00 in0.0 mm 0.13 in3.3 mm
10:30 PM 52.2°F11.2°C 50.5°F10.3°C 94% 9.0 mph WSW14.5 kmh WSW 15.0 mph24.1 kmh 30.20 in1022.7 mb 0.00 in0.0 mm 0.00 in0.0 mm 0.13 in3.3 mm
10:35 PM 52.1°F11.2°C 50.1°F10.1°C 93% 6.0 mph W9.7 kmh W 16.0 mph25.7 kmh 30.20 in1022.7 mb 0.00 in0.0 mm 0.00 in0.0 mm 0.13 in3.3 mm
10:40 PM 52.1°F11.2°C 50.1°F10.1°C 93% 10.0 mph W16.1 kmh W 15.0 mph24.1 kmh 30.20 in1022.7 mb 0.00 in0.0 mm 0.00 in0.0 mm 0.13 in3.3 mm
10:45 PM 52.0°F11.1°C 50.0°F10.0°C 93% 10.0 mph SW16.1 kmh SW 15.0 mph24.1 kmh 30.20 in1022.7 mb 0.00 in0.0 mm 0.00 in0.0 mm 0.13 in3.3 mm
10:50 PM 52.0°F11.1°C 50.3°F10.2°C 94% 10.0 mph WSW16.1 kmh WSW 17.0 mph27.4 kmh 30.19 in1022.4 mb 0.00 in0.0 mm 0.00 in0.0 mm 0.13 in3.3 mm
10:55 PM 51.9°F11.1°C 49.9°F9.9°C 93% 9.0 mph WNW14.5 kmh WNW 16.0 mph25.7 kmh 30.19 in1022.4 mb 0.00 in0.0 mm 0.00 in0.0 mm 0.13 in3.3 mm
11:00 PM 51.9°F11.1°C 49.9°F9.9°C 93% 6.0 mph SW9.7 kmh SW 15.0 mph24.1 kmh 30.18 in1022.0 mb 0.00 in0.0 mm 0.00 in0.0 mm 0.13 in3.3 mm
11:05 PM 51.9°F11.1°C 49.9°F9.9°C 93% 6.0 mph WSW9.7 kmh WSW 12.0 mph19.3 kmh 30.19 in1022.4 mb 0.00 in0.0 mm 0.00 in0.0 mm 0.10 in2.5 mm
11:10 PM 51.9°F11.1°C 49.9°F9.9°C 93% 7.0 mph WSW11.3 kmh WSW 13.0 mph20.9 kmh 30.19 in1022.4 mb 0.00 in0.0 mm 0.00 in0.0 mm 0.10 in2.5 mm
11:15 PM 51.8°F11.0°C 49.8°F9.9°C 93% 8.0 mph WSW12.9 kmh WSW 12.0 mph19.3 kmh 30.19 in1022.4 mb 0.00 in0.0 mm 0.00 in0.0 mm 0.10 in2.5 mm
11:20 PM 51.8°F11.0°C 49.8°F9.9°C 93% 6.0 mph WSW9.7 kmh WSW 11.0 mph17.7 kmh 30.19 in1022.4 mb 0.00 in0.0 mm 0.00 in0.0 mm 0.10 in2.5 mm
11:25 PM 51.9°F11.1°C 49.9°F9.9°C 93% 5.0 mph W8.0 kmh W 12.0 mph19.3 kmh 30.19 in1022.4 mb 0.00 in0.0 mm 0.00 in0.0 mm 0.10 in2.5 mm
11:30 PM 51.9°F11.1°C 49.9°F9.9°C 93% 5.0 mph WSW8.0 kmh WSW 11.0 mph17.7 kmh 30.18 in1022.0 mb 0.00 in0.0 mm 0.00 in0.0 mm 0.10 in2.5 mm
11:35 PM 51.9°F11.1°C 49.9°F9.9°C 93% 5.0 mph SW8.0 kmh SW 9.0 mph14.5 kmh 30.19 in1022.4 mb 0.00 in0.0 mm 0.00 in0.0 mm 0.10 in2.5 mm
11:40 PM 51.9°F11.1°C 49.9°F9.9°C 93% 5.0 mph WSW8.0 kmh WSW 9.0 mph14.5 kmh 30.19 in1022.4 mb 0.00 in0.0 mm 0.00 in0.0 mm 0.10 in2.5 mm
11:45 PM 51.9°F11.1°C 49.9°F9.9°C 93% 10.0 mph SW16.1 kmh SW 13.0 mph20.9 kmh 30.19 in1022.4 mb 0.00 in0.0 mm 0.00 in0.0 mm 0.10 in2.5 mm
11:50 PM 51.9°F11.1°C 49.9°F9.9°C 93% 8.0 mph WSW12.9 kmh WSW 15.0 mph24.1 kmh 30.19 in1022.4 mb 0.00 in0.0 mm 0.00 in0.0 mm 0.10 in2.5 mm
11:55 PM 51.9°F11.1°C 49.9°F9.9°C 93% 5.0 mph W8.0 kmh W 13.0 mph20.9 kmh 30.19 in1022.4 mb 0.00 in0.0 mm 0.00 in0.0 mm 0.10 in2.5 mm